Terminal Aerodrome Forecast
Issued by NWS

Home | Current Version | Previous Version | Text Only | Print | Product List | Glossary On
Versions: 1 2 3 4 5 6 7 8 9 10 11 12 13 14 15
000
FTUS46 KSGX 121100
TAFSNA
TAF
KSNA 121120Z 1212/1312 VRB04KT P6SM SCT015 SCT200
      TEMPO 1213/1215 BKN015
     FM121900 22009KT P6SM SCT200
     FM130200 VRB04KT P6SM FEW015
     FM130700 VRB03KT P6SM BKN015=

USA.gov is the U.S. government's official web portal to all federal, state and local government web resources and services.